Map

Track Data

SID SEASON NUMBER BASIN SUBBASIN NAME ISO_TIME NATURE LAT LON WMO_WIND WMO_PRES WMO_AGENCY TRACK_TYPE DIST2LAND LANDFALL IFLAG USA_AGENCY USA_ATCF_ID USA_LAT USA_LON USA_RECORD USA_STATUS USA_WIND USA_PRES USA_SSHS USA_R34_NE USA_R34_SE USA_R34_SW USA_R34_NW USA_R50_NE USA_R50_SE USA_R50_SW USA_R50_NW USA_R64_NE USA_R64_SE USA_R64_SW USA_R64_NW USA_POCI USA_ROCI USA_RMW USA_EYE TOKYO_LAT TOKYO_LON TOKYO_GRADE TOKYO_WIND TOKYO_PRES TOKYO_R50_DIR TOKYO_R50_LONG TOKYO_R50_SHORT TOKYO_R30_DIR TOKYO_R30_LONG TOKYO_R30_SHORT TOKYO_LAND CMA_LAT CMA_LON CMA_CAT CMA_WIND CMA_PRES HKO_LAT HKO_LON HKO_CAT HKO_WIND HKO_PRES NEWDELHI_LAT NEWDELHI_LON NEWDELHI_GRADE NEWDELHI_WIND NEWDELHI_PRES NEWDELHI_CI NEWDELHI_DP NEWDELHI_POCI REUNION_LAT REUNION_LON REUNION_TYPE REUNION_WIND REUNION_PRES REUNION_TNUM REUNION_CI REUNION_RMW REUNION_R34_NE REUNION_R34_SE REUNION_R34_SW REUNION_R34_NW REUNION_R50_NE REUNION_R50_SE REUNION_R50_SW REUNION_R50_NW REUNION_R64_NE REUNION_R64_SE REUNION_R64_SW REUNION_R64_NW BOM_LAT BOM_LON BOM_TYPE BOM_WIND BOM_PRES BOM_TNUM BOM_CI BOM_RMW BOM_R34_NE BOM_R34_SE BOM_R34_SW BOM_R34_NW BOM_R50_NE BOM_R50_SE BOM_R50_SW BOM_R50_NW BOM_R64_NE BOM_R64_SE BOM_R64_SW BOM_R64_NW BOM_ROCI BOM_POCI BOM_EYE BOM_POS_METHOD BOM_PRES_METHOD NADI_LAT NADI_LON NADI_CAT NADI_WIND NADI_PRES WELLINGTON_LAT WELLINGTON_LON WELLINGTON_WIND WELLINGTON_PRES DS824_LAT DS824_LON DS824_STAGE DS824_WIND DS824_PRES TD9636_LAT TD9636_LON TD9636_STAGE TD9636_WIND TD9636_PRES TD9635_LAT TD9635_LON TD9635_WIND TD9635_PRES TD9635_ROCI NEUMANN_LAT NEUMANN_LON NEUMANN_CLASS NEUMANN_WIND NEUMANN_PRES MLC_LAT MLC_LON MLC_CLASS MLC_WIND MLC_PRES USA_GUST BOM_GUST BOM_GUST_PER REUNION_GUST REUNION_GUST_PER USA_SEAHGT USA_SEARAD_NE USA_SEARAD_SE USA_SEARAD_SW USA_SEARAD_NW STORM_SPEED STORM_DIR
1989221N17115 1989 77 WP MM NOT_NAMED 1989-08-09 00:00:00 TS 17.0000 114.500 main 468 468 __O___________ -1 17.0000 114.500 0 19 1002 13 127
1989221N17115 1989 77 WP MM NOT_NAMED 1989-08-09 03:00:00 TS 16.6031 115.058 main 495 459 __P___________ -1 16.6031 115.058 0 19 1002 13 136
1989221N17115 1989 77 WP MM NOT_NAMED 1989-08-09 06:00:00 TS 16.1000 115.400 main 459 459 __O___________ -1 16.1000 115.400 0 19 1002 12 166
1989221N17115 1989 77 WP MM NOT_NAMED 1989-08-09 09:00:00 TS 15.4671 115.364 main 463 463 __P___________ -1 15.4671 115.364 0 19 1001 12 199
1989221N17115 1989 77 WP MM NOT_NAMED 1989-08-09 12:00:00 TS 15.0000 115.000 main 516 516 __O___________ -1 15.0000 115.000 0 19 1000 11 244
1989221N17115 1989 77 WP MM NOT_NAMED 1989-08-09 15:00:00 TS 15.0106 114.373 main 563 495 __P___________ -1 15.0106 114.373 0 19 1000 13 279
1989221N17115 1989 77 WP MM NOT_NAMED 1989-08-09 18:00:00 TS 15.2000 113.700 main 495 461 __O___________ -1 15.2000 113.700 0 19 1000 10 276
1989221N17115 1989 77 WP MM NOT_NAMED 1989-08-09 21:00:00 TS 15.1144 113.356 main 461 424 __P___________ -1 15.1144 113.356 0 24 1000 7 278
1989221N17115 1989 77 WP MM NOT_NAMED 1989-08-10 00:00:00 TS 15.3000 113.000 main 424 344 __O___________ -1 15.3000 113.000 1 29 1000 16 317
1989221N17115 1989 77 WP MM NOT_NAMED 1989-08-10 03:00:00 TS 16.2409 112.258 main 344 201 __P___________ -1 16.2409 112.258 1 26 1000 24 326
1989221N17115 1989 77 WP MM NOT_NAMED 1989-08-10 06:00:00 TS 17.3000 111.600 main 201 145 __O___________ -1 17.3000 111.600 1 23 1000 18 334
1989221N17115 1989 77 WP MM NOT_NAMED 1989-08-10 09:00:00 TS 17.8395 111.444 main 145 125 __P___________ -1 17.8395 111.444 1 23 1000 9 354
1989221N17115 1989 77 WP MM NOT_NAMED 1989-08-10 12:00:00 TS 18.2000 111.500 main 125 114 __O___________ -1 18.2000 111.500 1 23 1000 8 9
1989221N17115 1989 77 WP MM NOT_NAMED 1989-08-10 15:00:00 TS 18.6447 111.575 main 114 84 __P___________ -1 18.6447 111.575 1 21 1000 8 1
1989221N17115 1989 77 WP MM NOT_NAMED 1989-08-10 18:00:00 TS 19.0000 111.500 main 84 35 __O___________ -1 19.0000 111.500 0 19 1000 8 312
1989221N17115 1989 77 WP MM NOT_NAMED 1989-08-10 21:00:00 TS 19.1733 110.958 main 35 0 __P___________ -1 19.1733 110.958 0 19 1000 11 286
1989221N17115 1989 77 WP MM NOT_NAMED 1989-08-11 00:00:00 TS 19.3000 110.400 main 0 0 __O___________ -1 19.3000 110.400 0 19 1000 7 301
1989221N17115 1989 77 WP MM NOT_NAMED 1989-08-11 03:00:00 TS 19.5346 110.312 main 0 0 __P___________ -1 19.5346 110.312 0 19 1000 5 349
1989221N17115 1989 77 WP MM NOT_NAMED 1989-08-11 06:00:00 TS 19.8000 110.300 main 0 0 __O___________ -1 19.8000 110.300 0 19 1000 6 333
1989221N17115 1989 77 WP MM NOT_NAMED 1989-08-11 09:00:00 TS 20.0651 110.030 main 15 0 __P___________ -1 20.0651 110.030 0 19 1000 8 312
1989221N17115 1989 77 WP MM NOT_NAMED 1989-08-11 12:00:00 TS 20.3000 109.700 main 20 20 __O___________ -1 20.3000 109.700 0 19 1000 6 303
1989221N17115 1989 77 WP MM NOT_NAMED 1989-08-11 15:00:00 TS 20.4124 109.457 main 33 33 __P___________ -1 20.4124 109.457 0 19 1000 6 303
1989221N17115 1989 77 WP MM NOT_NAMED 1989-08-11 18:00:00 TS 20.6000 109.200 main 56 45 __O___________ -1 20.6000 109.200 0 19 1000 8 324
1989221N17115 1989 77 WP MM NOT_NAMED 1989-08-11 21:00:00 TS 21.0920 108.925 main 45 0 __P___________ -1 21.0920 108.925 0 18 1000 12 327
1989221N17115 1989 77 WP MM NOT_NAMED 1989-08-12 00:00:00 TS 21.6000 108.500 main 0 0 __O___________ -1 21.6000 108.500 0 17 1000 13 308
1989221N17115 1989 77 WP MM NOT_NAMED 1989-08-12 03:00:00 TS 21.8787 107.825 main 0 0 __P___________ -1 21.8787 107.825 0 17 1000 14 286
1989221N17115 1989 77 WP MM NOT_NAMED 1989-08-12 06:00:00 TS 22.0000 107.000 main 0 __O___________ -1 22.0000 107.000 0 17 1000 15 279

Digital Typhoon Data and Search

About IBTrACS Database

This database is a web-friendly format of International Best Track Archive for Climate Stewardship (IBTrACS), a global best track data archive curated by NOAA dating back to 1842.

Updated: 2021-12-01